Terminal Aerodrome Forecast
Issued by NWS

Home | Current Version | Previous Version | Text Only | Print | Product List | Glossary On
Versions: 1 2 3 4 5 6 7 8 9 10 11 12 13 14 15 16 17 18 19
000
FTUS45 KABQ 011350 AAA
TAFSAF
TAF AMD
KSAF 011350Z 0114/0212 VRB06KT P6SM FEW025 BKN090
     FM011700 24007KT P6SM SCT060 SCT100
     FM012100 23010KT P6SM VCTS SCT060CB BKN090
     FM020200 04006KT P6SM VCSH SCT060 BKN090=

USA.gov is the U.S. government's official web portal to all federal, state and local government web resources and services.